Time;durP1;ratioP1;P1;durP2;ratioP2;P2;SDS_P1;SDS_P2;PMS_P1;PMS_P2;Temp;Humidity;BMP_temperature;BMP_pressure;BME280_temperature;BME280_humidity;BME280_pressure;Samples;Min_cycle;Max_cycle;Signal;HPM_P1;HPM_P2
2020/12/10 00:00:32;;;;;;;16.27;7.27;;;3.00;77.10;;;;;;5075381;28;20482;-83
2020/12/10 00:02:58;;;;;;;15.73;7.53;;;3.00;77.40;;;;;;5057412;28;20025;-82
2020/12/10 00:05:24;;;;;;;17.13;7.57;;;3.00;77.20;;;;;;5057422;28;20082;-84
2020/12/10 00:07:50;;;;;;;16.27;7.40;;;3.00;77.40;;;;;;5056932;28;20032;-82
2020/12/10 00:10:16;;;;;;;19.33;8.17;;;3.00;77.30;;;;;;5075304;28;20021;-82
2020/12/10 00:12:43;;;;;;;14.93;7.20;;;3.00;77.10;;;;;;5057187;28;20516;-83
2020/12/10 00:15:10;;;;;;;15.33;7.70;;;3.10;77.10;;;;;;5057701;28;20025;-82
2020/12/10 00:17:36;;;;;;;18.07;8.33;;;3.10;77.00;;;;;;5045637;28;20037;-83
2020/12/10 00:20:09;;;;;;;14.80;7.43;;;3.10;76.80;;;;;;5017664;28;20379;-83
2020/12/10 00:22:35;;;;;;;16.53;8.43;;;3.20;76.70;;;;;;5034954;28;20029;-83
2020/12/10 00:25:03;;;;;;;14.53;7.60;;;3.10;76.70;;;;;;5047707;28;20425;-82
2020/12/10 00:27:29;;;;;;;16.83;7.60;;;3.10;76.70;;;;;;5057224;28;20068;-83
2020/12/10 00:29:57;;;;;;;16.80;8.23;;;3.10;76.80;;;;;;5057793;28;20028;-83
2020/12/10 00:32:25;;;;;;;15.87;7.80;;;3.10;76.80;;;;;;5056874;28;20056;-82
2020/12/10 00:34:51;;;;;;;15.33;7.23;;;3.10;76.90;;;;;;5057395;28;20119;-83
2020/12/10 00:37:17;;;;;;;18.30;8.10;;;3.10;76.90;;;;;;5057478;28;20081;-83
2020/12/10 00:39:43;;;;;;;18.43;8.60;;;3.10;76.90;;;;;;5074779;28;20025;-83
2020/12/10 00:42:08;;;;;;;15.97;7.17;;;3.10;76.70;;;;;;5057308;28;20028;-82
2020/12/10 00:44:34;;;;;;;19.33;8.20;;;3.10;76.70;;;;;;5074510;28;20104;-83
2020/12/10 00:47:00;;;;;;;17.27;7.50;;;3.10;76.90;;;;;;5057108;28;20354;-82
2020/12/10 00:49:27;;;;;;;16.87;7.73;;;3.10;77.00;;;;;;5056851;28;20071;-85
2020/12/10 00:51:53;;;;;;;17.43;8.03;;;3.10;77.40;;;;;;5056819;28;20052;-83
2020/12/10 00:54:20;;;;;;;19.93;8.90;;;3.10;77.40;;;;;;5074814;28;20066;-82
2020/12/10 00:56:45;;;;;;;21.07;8.73;;;3.10;77.50;;;;;;5056449;28;20036;-83
2020/12/10 00:59:11;;;;;;;20.57;8.33;;;3.10;77.70;;;;;;5057030;28;20035;-83
2020/12/10 01:01:40;;;;;;;16.17;8.23;;;3.10;77.60;;;;;;5073733;28;20453;-83
2020/12/10 01:04:06;;;;;;;20.00;8.80;;;3.10;77.50;;;;;;5056978;28;20038;-83
2020/12/10 01:06:32;;;;;;;16.73;8.23;;;3.10;77.20;;;;;;5055818;28;20111;-83
2020/12/10 01:08:57;;;;;;;18.33;8.90;;;3.10;77.50;;;;;;5056480;28;20025;-83
2020/12/10 01:11:27;;;;;;;18.57;8.17;;;3.10;77.40;;;;;;5074251;28;20081;-83
2020/12/10 01:13:56;;;;;;;19.73;8.57;;;3.10;77.40;;;;;;5056305;28;20073;-83
2020/12/10 01:16:23;;;;;;;19.80;8.87;;;3.10;77.20;;;;;;5074359;28;20029;-83
2020/12/10 01:18:52;;;;;;;19.57;8.17;;;3.10;77.00;;;;;;5055829;28;20162;-83
2020/12/10 01:21:31;;;;;;;21.23;8.83;;;3.10;77.00;;;;;;5056553;28;20028;-83
2020/12/10 01:23:58;;;;;;;17.87;8.47;;;3.10;77.00;;;;;;5074183;28;20021;-83
2020/12/10 01:26:24;;;;;;;20.60;9.07;;;3.10;77.10;;;;;;5056051;28;20032;-83
2020/12/10 01:28:50;;;;;;;20.00;8.97;;;3.10;77.00;;;;;;5073575;28;20508;-83
2020/12/10 01:31:16;;;;;;;20.77;8.30;;;3.10;76.90;;;;;;5055943;28;20049;-83
2020/12/10 01:33:41;;;;;;;17.53;8.93;;;3.10;77.30;;;;;;5056144;28;20039;-83
2020/12/10 01:36:07;;;;;;;17.27;8.93;;;3.10;76.90;;;;;;5055724;28;20119;-83
2020/12/10 01:38:33;;;;;;;19.50;8.60;;;3.00;76.80;;;;;;5073387;28;20028;-83
2020/12/10 01:40:58;;;;;;;18.23;8.50;;;3.00;77.00;;;;;;5074155;28;20108;-82
2020/12/10 01:43:24;;;;;;;16.70;8.40;;;3.00;77.00;;;;;;5055729;28;20021;-83
2020/12/10 01:45:49;;;;;;;16.40;7.97;;;3.10;77.20;;;;;;5055833;28;20024;-83
2020/12/10 01:48:15;;;;;;;20.13;8.93;;;3.10;77.40;;;;;;5056519;28;20039;-81
2020/12/10 01:50:41;;;;;;;16.73;8.33;;;3.00;77.00;;;;;;5055937;28;20477;-83
2020/12/10 01:53:06;;;;;;;17.20;8.43;;;3.00;77.10;;;;;;5056013;28;20120;-83
2020/12/10 01:55:32;;;;;;;16.10;8.13;;;3.10;77.20;;;;;;5055665;28;20089;-83
2020/12/10 01:57:59;;;;;;;18.30;8.77;;;3.10;77.20;;;;;;5073515;28;20037;-83
2020/12/10 02:00:25;;;;;;;15.00;7.90;;;3.00;77.30;;;;;;5056278;28;20025;-83
2020/12/10 02:02:55;;;;;;;18.93;8.53;;;3.10;77.30;;;;;;5055923;28;20090;-83
2020/12/10 02:05:21;;;;;;;17.90;8.80;;;3.10;77.40;;;;;;5056161;28;20461;-82
2020/12/10 02:07:47;;;;;;;18.20;8.30;;;3.10;78.00;;;;;;5055697;28;20548;-83
2020/12/10 02:10:13;;;;;;;18.07;7.73;;;3.10;77.20;;;;;;5055724;28;20114;-83
2020/12/10 02:12:39;;;;;;;19.60;9.23;;;3.10;77.50;;;;;;5055308;28;20024;-83
2020/12/10 02:15:05;;;;;;;17.20;8.93;;;3.10;77.40;;;;;;5077499;28;20020;-83
2020/12/10 02:17:30;;;;;;;17.97;8.13;;;3.10;77.40;;;;;;5077468;28;20028;-84
2020/12/10 02:19:56;;;;;;;18.83;8.67;;;3.10;77.40;;;;;;5059724;28;20054;-83
2020/12/10 02:22:22;;;;;;;16.63;8.17;;;3.10;77.70;;;;;;5077713;28;20070;-83
2020/12/10 02:24:47;;;;;;;17.93;8.40;;;3.10;77.70;;;;;;5077200;28;20491;-83
2020/12/10 02:27:13;;;;;;;17.07;8.07;;;3.10;77.30;;;;;;5059269;28;20086;-83
2020/12/10 02:29:39;;;;;;;16.20;8.70;;;3.10;77.40;;;;;;5059097;28;20052;-83
2020/12/10 02:32:04;;;;;;;17.67;8.93;;;3.10;77.40;;;;;;5077368;28;20056;-83
2020/12/10 02:34:31;;;;;;;18.00;8.93;;;3.10;77.40;;;;;;5059561;28;20070;-83
2020/12/10 02:36:57;;;;;;;18.13;8.93;;;3.10;77.50;;;;;;5076852;28;20092;-83
2020/12/10 02:39:23;;;;;;;20.13;9.47;;;3.10;77.00;;;;;;5059061;28;20071;-83
2020/12/10 02:41:48;;;;;;;18.13;8.77;;;3.10;77.10;;;;;;5058854;28;20028;-83
2020/12/10 02:44:14;;;;;;;19.63;8.67;;;3.10;77.40;;;;;;5059448;28;20167;-83
2020/12/10 02:46:39;;;;;;;21.70;8.97;;;3.10;77.30;;;;;;5058486;28;20111;-83
2020/12/10 02:49:05;;;;;;;20.40;9.50;;;3.10;77.30;;;;;;5077325;28;20056;-82
2020/12/10 02:51:31;;;;;;;20.17;8.93;;;3.10;77.10;;;;;;5059360;28;20032;-83
2020/12/10 02:53:56;;;;;;;18.77;8.53;;;3.10;77.20;;;;;;5058996;28;20435;-83
2020/12/10 02:56:22;;;;;;;20.17;8.70;;;3.20;77.20;;;;;;5058931;28;20070;-82
2020/12/10 02:58:48;;;;;;;20.97;8.83;;;3.20;76.90;;;;;;5058465;28;20481;-83
2020/12/10 03:01:13;;;;;;;17.93;9.07;;;3.20;77.30;;;;;;5059443;28;20024;-82
2020/12/10 03:03:39;;;;;;;18.20;8.27;;;3.20;77.40;;;;;;5059084;28;20020;-83
2020/12/10 03:06:08;;;;;;;15.90;8.20;;;3.20;77.40;;;;;;5059469;28;20064;-82
2020/12/10 03:08:35;;;;;;;18.60;8.90;;;3.30;77.20;;;;;;5058779;28;20036;-84
2020/12/10 03:11:01;;;;;;;19.47;9.70;;;3.30;76.90;;;;;;5059225;28;20024;-83
2020/12/10 03:13:27;;;;;;;17.30;8.53;;;3.20;76.90;;;;;;5058756;28;20024;-82
2020/12/10 03:15:53;;;;;;;18.43;8.57;;;3.30;76.90;;;;;;5075917;28;20501;-82
2020/12/10 03:18:18;;;;;;;20.40;9.20;;;3.20;76.80;;;;;;5076957;28;20024;-83
2020/12/10 03:20:44;;;;;;;18.27;9.63;;;3.20;77.10;;;;;;5058456;28;20024;-83
2020/12/10 03:23:10;;;;;;;16.80;8.30;;;3.20;77.10;;;;;;5058538;28;20035;-83
2020/12/10 03:25:35;;;;;;;17.50;8.43;;;3.30;77.10;;;;;;5058333;28;20031;-84
2020/12/10 03:28:01;;;;;;;18.60;8.70;;;3.40;77.10;;;;;;5058709;28;20068;-83
2020/12/10 03:30:27;;;;;;;18.20;8.87;;;3.30;77.00;;;;;;5058662;28;20032;-82
2020/12/10 03:32:52;;;;;;;17.73;9.23;;;3.30;77.20;;;;;;5057825;28;20461;-83
2020/12/10 03:35:18;;;;;;;19.50;9.30;;;3.30;77.20;;;;;;5075959;28;20021;-83
2020/12/10 03:37:43;;;;;;;18.77;9.27;;;3.40;77.10;;;;;;5075891;28;20028;-83
2020/12/10 03:40:09;;;;;;;20.73;9.30;;;3.40;77.00;;;;;;5058556;28;20024;-83
2020/12/10 03:42:35;;;;;;;21.17;8.97;;;3.30;77.20;;;;;;5058513;28;20097;-83
2020/12/10 03:45:01;;;;;;;16.53;8.53;;;3.30;77.50;;;;;;5058459;28;20123;-83
2020/12/10 03:47:26;;;;;;;18.77;9.13;;;3.30;77.80;;;;;;5058644;28;20032;-83
2020/12/10 03:49:52;;;;;;;17.83;8.83;;;3.30;77.70;;;;;;5058171;28;20389;-83
2020/12/10 03:52:18;;;;;;;19.43;8.70;;;3.30;78.00;;;;;;5058521;28;20130;-83
2020/12/10 03:54:43;;;;;;;18.17;8.73;;;3.30;78.00;;;;;;5057964;28;20111;-84
2020/12/10 03:57:09;;;;;;;16.40;8.27;;;3.40;77.90;;;;;;5057912;28;20388;-83
2020/12/10 03:59:35;;;;;;;21.00;8.47;;;3.30;77.90;;;;;;5058307;28;20029;-83
2020/12/10 04:02:01;;;;;;;17.87;8.77;;;3.40;78.20;;;;;;5075634;28;20021;-83
2020/12/10 04:04:26;;;;;;;16.83;8.13;;;3.40;78.30;;;;;;5058300;28;20029;-83
2020/12/10 04:06:52;;;;;;;17.23;8.40;;;3.40;78.30;;;;;;5056755;28;20124;-83
2020/12/10 04:09:17;;;;;;;19.57;8.60;;;3.40;78.00;;;;;;5057726;28;20123;-83
2020/12/10 04:11:43;;;;;;;19.77;8.80;;;3.40;77.90;;;;;;5074896;28;20024;-83
2020/12/10 04:14:09;;;;;;;16.70;8.00;;;3.40;77.80;;;;;;5057958;28;20450;-83
2020/12/10 04:16:35;;;;;;;16.10;8.20;;;3.40;78.10;;;;;;5075591;28;20024;-83
2020/12/10 04:19:01;;;;;;;18.47;8.33;;;3.40;78.20;;;;;;5057458;28;20032;-83
2020/12/10 04:21:26;;;;;;;16.63;8.13;;;3.40;78.00;;;;;;5057413;28;20017;-83
2020/12/10 04:23:52;;;;;;;16.73;8.43;;;3.40;78.00;;;;;;5075046;28;20051;-83
2020/12/10 04:26:18;;;;;;;17.73;8.60;;;3.40;78.10;;;;;;5057554;28;20024;-83
2020/12/10 04:28:44;;;;;;;17.33;8.83;;;3.30;78.00;;;;;;5056875;28;20033;-83
2020/12/10 04:31:10;;;;;;;17.53;8.50;;;3.30;78.30;;;;;;5074920;28;20059;-83
2020/12/10 04:33:36;;;;;;;16.80;8.40;;;3.30;78.70;;;;;;5057019;28;20025;-83
2020/12/10 04:36:03;;;;;;;18.23;8.47;;;3.30;78.60;;;;;;5056257;28;20484;-83
2020/12/10 04:38:30;;;;;;;15.90;8.00;;;3.30;78.40;;;;;;5057302;28;20028;-83
2020/12/10 04:40:56;;;;;;;15.70;7.97;;;3.40;78.30;;;;;;5074276;28;20027;-83
2020/12/10 04:43:27;;;;;;;18.67;8.93;;;3.30;78.20;;;;;;5057119;28;20032;-82
2020/12/10 04:46:01;;;;;;;19.48;8.63;;;3.30;78.40;;;;;;5056897;28;20107;-83
2020/12/10 04:48:28;;;;;;;18.13;8.90;;;3.40;78.60;;;;;;5057146;28;20040;-83
2020/12/10 04:51:00;;;;;;;18.80;8.33;;;3.40;78.70;;;;;;5056684;28;20035;-83
2020/12/10 04:53:26;;;;;;;18.67;8.98;;;3.30;78.50;;;;;;5074789;28;20034;-83
2020/12/10 04:55:54;;;;;;;17.63;7.83;;;3.30;78.60;;;;;;5056587;28;20127;-82
2020/12/10 04:58:20;;;;;;;16.80;7.80;;;3.30;78.40;;;;;;5057157;28;20060;-82
2020/12/10 05:00:46;;;;;;;19.60;8.83;;;3.30;78.70;;;;;;5056699;28;20021;-84
2020/12/10 05:03:12;;;;;;;16.27;8.07;;;3.30;78.80;;;;;;5057037;28;20028;-83
2020/12/10 05:05:37;;;;;;;17.67;8.43;;;3.30;78.80;;;;;;5074354;28;20028;-83
2020/12/10 05:08:04;;;;;;;16.67;8.10;;;3.30;78.80;;;;;;5056412;28;20178;-82
2020/12/10 05:10:43;;;;;;;19.63;8.47;;;3.30;79.00;;;;;;5057025;28;20103;-83
2020/12/10 05:13:11;;;;;;;18.23;8.43;;;3.40;79.10;;;;;;5056765;28;20032;-83
2020/12/10 05:15:38;;;;;;;17.03;8.47;;;3.40;78.80;;;;;;5074002;28;20024;-83
2020/12/10 05:18:14;;;;;;;18.13;8.77;;;3.30;78.70;;;;;;5073534;28;20020;-83
2020/12/10 05:20:46;;;;;;;14.63;7.40;;;3.30;78.70;;;;;;5056383;28;20056;-83
2020/12/10 05:23:14;;;;;;;15.60;7.87;;;3.30;78.90;;;;;;5056296;28;20094;-82
2020/12/10 05:25:53;;;;;;;20.00;9.10;;;3.30;78.70;;;;;;5056559;28;20024;-82
2020/12/10 05:28:21;;;;;;;18.87;9.00;;;3.30;78.60;;;;;;5056683;28;20090;-83
2020/12/10 05:31:01;;;;;;;18.97;8.67;;;3.30;78.90;;;;;;5073290;28;20124;-83
2020/12/10 05:33:28;;;;;;;17.43;8.33;;;3.20;78.80;;;;;;5074098;28;20034;-83
2020/12/10 05:36:12;;;;;;;20.30;8.67;;;3.20;79.00;;;;;;5073570;28;20029;-83
2020/12/10 05:39:04;;;;;;;20.63;9.03;;;3.20;79.00;;;;;;5056263;28;20056;-83
2020/12/10 05:41:31;;;;;;;;;;;3.20;78.60;;;;;;5056900;28;20024;-83
2020/12/10 05:44:15;;;;;;;15.77;7.90;;;3.20;79.10;;;;;;5055251;28;19912;-83
2020/12/10 05:46:41;;;;;;;19.63;8.77;;;3.20;78.70;;;;;;5056336;28;20574;-83
2020/12/10 05:49:07;;;;;;;16.43;8.33;;;3.20;78.80;;;;;;5054831;28;20037;-84
2020/12/10 05:51:42;;;;;;;17.73;8.30;;;3.20;79.10;;;;;;5056757;28;20037;-83
2020/12/10 05:54:13;;;;;;;17.93;8.53;;;3.20;78.80;;;;;;5056022;28;20025;-83
2020/12/10 05:57:00;;;;;;;17.77;8.90;;;3.20;78.90;;;;;;5056039;28;20036;-83
2020/12/10 05:59:30;;;;;;;16.67;8.73;;;3.20;78.90;;;;;;5056594;28;20066;-83
2020/12/10 06:02:01;;;;;;;19.80;8.83;;;3.20;78.80;;;;;;5055901;28;20029;-83
2020/12/10 06:04:27;;;;;;;20.83;8.95;;;3.20;78.90;;;;;;5056315;28;20473;-83
2020/12/10 06:06:56;;;;;;;18.83;8.77;;;3.30;78.90;;;;;;5055742;28;20032;-83
2020/12/10 06:09:24;;;;;;;18.27;8.63;;;3.20;78.90;;;;;;5056108;28;20044;-83
2020/12/10 06:11:59;;;;;;;17.17;8.47;;;3.20;79.00;;;;;;5055505;28;20020;-83
2020/12/10 06:14:24;;;;;;;16.90;8.43;;;3.20;79.10;;;;;;5056373;28;20027;-83
2020/12/10 06:17:09;;;;;;;16.97;8.47;;;3.20;79.00;;;;;;5055660;28;20115;-84
2020/12/10 06:19:36;;;;;;;19.80;8.93;;;3.30;79.00;;;;;;5056303;28;20025;-83
2020/12/10 06:22:25;;;;;;;16.80;8.70;;;3.30;79.10;;;;;;5073135;28;20028;-83
2020/12/10 06:24:53;;;;;;;17.43;8.23;;;3.30;78.90;;;;;;5055154;28;20068;-83
2020/12/10 06:27:30;;;;;;;15.87;7.87;;;3.20;78.90;;;;;;5073684;28;20033;-83
2020/12/10 06:30:14;;;;;;;17.53;8.30;;;3.20;79.40;;;;;;5055525;28;20025;-83
2020/12/10 06:32:42;;;;;;;19.17;8.50;;;3.20;79.20;;;;;;5055249;28;20048;-83
2020/12/10 06:35:34;;;;;;;16.37;7.73;;;3.30;79.00;;;;;;5055437;28;20078;-83
2020/12/10 06:38:02;;;;;;;16.30;8.47;;;3.20;78.80;;;;;;5050493;28;20535;-83
2020/12/10 06:40:31;;;;;;;18.90;8.23;;;3.20;79.20;;;;;;5055668;28;20115;-83
2020/12/10 06:42:57;;;;;;;16.67;7.97;;;3.10;79.00;;;;;;5072846;28;20032;-83
2020/12/10 06:45:34;;;;;;;15.43;7.77;;;3.10;79.10;;;;;;5056031;28;20024;-83
2020/12/10 06:48:17;;;;;;;19.70;8.53;;;3.10;79.20;;;;;;5054885;28;20086;-83
2020/12/10 06:50:43;;;;;;;17.40;8.67;;;3.10;79.30;;;;;;5055608;28;20024;-83
2020/12/10 06:53:17;;;;;;;17.37;8.93;;;3.20;79.10;;;;;;5055272;28;20423;-83
2020/12/10 06:55:56;;;;;;;19.83;9.07;;;3.20;78.80;;;;;;5055673;28;20028;-82
2020/12/10 06:58:44;;;;;;;18.20;9.10;;;3.20;78.80;;;;;;5073367;28;20409;-83
2020/12/10 07:01:23;;;;;;;18.77;8.73;;;3.20;78.50;;;;;;5058311;28;20517;-83
2020/12/10 07:03:54;;;;;;;16.77;8.37;;;3.20;78.80;;;;;;5059207;28;20381;-84
2020/12/10 07:06:21;;;;;;;18.92;8.38;;;3.20;78.90;;;;;;5058820;28;20032;-83
2020/12/10 07:09:01;;;;;;;18.73;8.40;;;3.20;78.90;;;;;;5076501;28;20032;-83
2020/12/10 07:11:32;;;;;;;18.40;9.07;;;3.20;78.90;;;;;;5059244;28;20147;-83
2020/12/10 07:13:58;;;;;;;18.53;9.03;;;3.20;78.90;;;;;;5058111;28;20055;-84
2020/12/10 07:16:29;;;;;;;20.60;8.30;;;3.20;78.80;;;;;;5058528;28;20458;-83
2020/12/10 07:18:55;;;;;;;18.63;9.35;;;3.20;78.90;;;;;;5075757;28;20031;-83
2020/12/10 07:21:22;;;;;;;18.47;8.63;;;3.30;78.80;;;;;;5058640;28;20043;-83
2020/12/10 07:23:49;;;;;;;19.20;9.03;;;3.30;79.30;;;;;;5058708;28;20024;-85
2020/12/10 07:26:16;;;;;;;18.70;9.40;;;3.20;79.00;;;;;;5058657;28;20028;-83
2020/12/10 07:28:41;;;;;;;19.67;9.83;;;3.30;79.00;;;;;;5058075;28;20036;-82
2020/12/10 07:31:17;;;;;;;21.73;8.33;;;3.30;78.90;;;;;;5057458;28;20044;-83
2020/12/10 07:33:44;;;;;;;18.60;8.90;;;3.30;78.60;;;;;;5058717;28;20037;-82
2020/12/10 07:36:10;;;;;;;17.90;8.03;;;3.30;78.60;;;;;;5075773;28;20187;-83
2020/12/10 07:38:36;;;;;;;18.07;8.27;;;3.30;78.70;;;;;;5075975;28;20516;-83
2020/12/10 07:41:01;;;;;;;20.63;9.90;;;3.40;78.80;;;;;;5057414;28;20039;-82
2020/12/10 07:43:27;;;;;;;19.13;9.00;;;3.40;78.70;;;;;;5058283;28;20024;-83
2020/12/10 07:45:53;;;;;;;17.83;8.63;;;3.40;78.70;;;;;;5057717;28;20028;-85
2020/12/10 07:48:20;;;;;;;17.43;8.87;;;3.40;78.40;;;;;;5075989;28;20032;-83
2020/12/10 07:50:47;;;;;;;20.13;9.43;;;3.40;78.30;;;;;;5058534;28;20354;-84
2020/12/10 07:53:13;;;;;;;19.93;9.00;;;3.40;78.30;;;;;;5075296;28;20029;-82
2020/12/10 07:56:00;;;;;;;18.40;9.03;;;3.40;78.40;;;;;;5075646;28;20029;-82
2020/12/10 07:58:33;;;;;;;15.90;8.60;;;3.40;78.30;;;;;;5058412;28;20037;-83
2020/12/10 08:01:03;;;;;;;18.37;8.33;;;3.40;78.30;;;;;;5057120;28;20028;-83
2020/12/10 08:03:56;;;;;;;20.77;8.80;;;3.40;78.30;;;;;;5057882;28;20029;-83
2020/12/10 08:06:29;;;;;;;19.53;8.67;;;3.40;78.30;;;;;;5058207;28;20029;-82
2020/12/10 08:08:59;;;;;;;16.73;8.13;;;3.40;78.20;;;;;;5075329;28;20036;-84
2020/12/10 08:11:26;;;;;;;18.27;8.80;;;3.50;78.30;;;;;;5056523;28;20028;-82
2020/12/10 08:13:55;;;;;;;18.53;8.23;;;3.40;77.70;;;;;;5057497;28;20540;-83
2020/12/10 08:16:21;;;;;;;16.30;8.03;;;3.40;77.80;;;;;;5058137;28;20039;-83
2020/12/10 08:18:46;;;;;;;16.93;8.17;;;3.50;78.10;;;;;;5057734;28;20032;-83
2020/12/10 08:21:12;;;;;;;15.40;8.17;;;3.50;78.00;;;;;;5075066;28;20067;-83
2020/12/10 08:23:45;;;;;;;15.80;7.57;;;3.60;77.70;;;;;;5075377;28;20025;-83
2020/12/10 08:26:15;;;;;;;20.87;8.50;;;3.60;77.60;;;;;;5057287;28;20028;-83
2020/12/10 08:28:57;;;;;;;12.77;6.77;;;3.60;77.50;;;;;;5075246;28;20032;-83
2020/12/10 08:31:26;;;;;;;;;;;3.60;77.50;;;;;;5057823;28;20493;-83
2020/12/10 08:33:52;;;;;;;16.70;8.00;;;3.50;77.20;;;;;;5057152;28;19985;-85
2020/12/10 08:36:31;;;;;;;16.13;7.47;;;3.50;77.50;;;;;;5057527;28;20032;-83
2020/12/10 08:38:58;;;;;;;14.43;7.60;;;3.60;77.10;;;;;;5074863;28;20480;-83
2020/12/10 08:41:35;;;;;;;17.37;8.27;;;3.60;77.20;;;;;;5057328;28;20048;-83
2020/12/10 08:44:05;;;;;;;15.13;7.13;;;3.60;77.50;;;;;;5074510;28;20025;-83
2020/12/10 08:46:32;;;;;;;13.87;7.03;;;3.60;77.30;;;;;;5057495;28;20021;-83
2020/12/10 08:49:20;;;;;;;13.87;6.93;;;3.70;76.60;;;;;;5056554;28;20117;-83
2020/12/10 08:51:48;;;;;;;23.13;7.87;;;3.60;76.70;;;;;;5074499;28;20493;-83
2020/12/10 08:54:15;;;;;;;23.90;9.73;;;3.70;77.00;;;;;;5056905;28;20032;-83
2020/12/10 08:56:40;;;;;;;27.27;11.20;;;3.70;76.80;;;;;;5057169;28;20042;-82
2020/12/10 08:59:07;;;;;;;14.43;7.43;;;3.80;76.90;;;;;;5074236;28;20454;-83
2020/12/10 09:01:33;;;;;;;14.57;7.20;;;3.80;77.00;;;;;;5056992;28;20048;-82
2020/12/10 09:03:59;;;;;;;13.60;7.33;;;3.80;76.20;;;;;;5056150;28;20472;-83
2020/12/10 09:06:34;;;;;;;15.50;7.20;;;3.80;76.50;;;;;;5056980;28;20025;-83
2020/12/10 09:09:01;;;;;;;15.97;7.53;;;3.70;76.40;;;;;;5056443;28;20103;-83
2020/12/10 09:11:27;;;;;;;14.30;7.60;;;3.80;76.60;;;;;;5056815;28;20021;-83
2020/12/10 09:13:53;;;;;;;13.40;7.07;;;3.90;77.30;;;;;;5056781;28;20043;-83
2020/12/10 09:16:19;;;;;;;14.83;7.57;;;3.80;76.30;;;;;;5074163;28;20029;-83
2020/12/10 09:18:45;;;;;;;15.93;7.37;;;3.80;76.30;;;;;;5074235;28;20020;-83
2020/12/10 09:21:10;;;;;;;15.20;7.70;;;3.90;76.40;;;;;;5056504;28;20028;-82
2020/12/10 09:23:44;;;;;;;14.17;6.93;;;3.90;76.00;;;;;;5056400;28;20025;-83
2020/12/10 09:26:13;;;;;;;15.83;7.40;;;3.90;75.50;;;;;;5056129;28;20032;-82
2020/12/10 09:28:39;;;;;;;16.10;7.47;;;3.90;75.20;;;;;;5056671;28;20040;-82
2020/12/10 09:31:06;;;;;;;16.57;8.03;;;3.90;75.20;;;;;;5055965;28;20599;-83
2020/12/10 09:33:31;;;;;;;17.40;7.17;;;3.90;75.50;;;;;;5056511;28;20077;-83
2020/12/10 09:35:57;;;;;;;13.43;6.80;;;4.00;75.70;;;;;;5073708;28;20111;-83
2020/12/10 09:38:23;;;;;;;12.03;6.37;;;4.00;75.40;;;;;;5056562;28;20036;-82
2020/12/10 09:40:49;;;;;;;22.40;10.50;;;4.00;75.10;;;;;;5074067;28;20028;-82
2020/12/10 09:43:15;;;;;;;13.67;7.67;;;4.00;75.30;;;;;;5055952;28;20389;-83
2020/12/10 09:45:42;;;;;;;18.80;8.07;;;4.00;75.00;;;;;;5056314;28;20078;-83
2020/12/10 09:48:08;;;;;;;17.40;8.10;;;4.00;75.40;;;;;;5055933;28;20428;-83
2020/12/10 09:50:36;;;;;;;12.73;6.90;;;4.00;74.60;;;;;;5074171;28;20021;-83
2020/12/10 09:53:14;;;;;;;20.10;8.87;;;4.00;75.20;;;;;;5055883;28;20028;-83
2020/12/10 09:58:08;;;;;;;18.70;7.30;;;4.00;74.70;;;;;;5073647;28;20040;-83
2020/12/10 10:00:34;;;;;;;21.30;10.70;;;4.00;74.70;;;;;;5073866;28;20020;-83
2020/12/10 10:03:05;;;;;;;14.27;7.37;;;4.10;74.80;;;;;;5055878;28;20094;-84
2020/12/10 10:05:31;;;;;;;17.77;8.03;;;4.10;74.90;;;;;;5056091;28;20445;-84
2020/12/10 10:07:57;;;;;;;15.73;7.53;;;4.10;74.50;;;;;;5073771;28;20036;-85
2020/12/10 10:10:23;;;;;;;16.77;7.60;;;4.10;74.70;;;;;;5056222;28;20040;-83
2020/12/10 10:12:49;;;;;;;14.03;6.77;;;4.10;74.90;;;;;;5055820;28;20039;-83
2020/12/10 10:15:16;;;;;;;14.00;6.40;;;4.20;74.80;;;;;;5073099;28;20035;-82
2020/12/10 10:17:42;;;;;;;14.47;7.30;;;4.20;74.50;;;;;;5055970;28;20466;-82
2020/12/10 10:20:08;;;;;;;14.30;7.20;;;4.20;74.50;;;;;;5055544;28;20020;-83
2020/12/10 10:22:38;;;;;;;11.20;6.20;;;4.10;74.10;;;;;;5055811;28;20111;-83
2020/12/10 10:25:04;;;;;;;15.13;7.00;;;4.20;74.50;;;;;;5055179;28;20056;-83
2020/12/10 10:27:30;;;;;;;17.43;7.30;;;4.20;73.90;;;;;;5073379;28;20037;-82
2020/12/10 10:29:55;;;;;;;13.50;6.97;;;4.20;74.80;;;;;;5055776;28;20031;-82
2020/12/10 10:32:21;;;;;;;13.97;7.07;;;4.20;74.30;;;;;;5054843;28;20136;-83
2020/12/10 10:34:47;;;;;;;13.90;7.10;;;4.20;73.80;;;;;;5075496;28;20025;-81
2020/12/10 10:37:12;;;;;;;14.87;7.27;;;4.20;73.80;;;;;;5059543;28;20051;-83
2020/12/10 10:39:38;;;;;;;42.70;18.57;;;4.30;73.90;;;;;;5077649;28;20021;-82
2020/12/10 10:42:05;;;;;;;16.60;8.77;;;4.30;73.90;;;;;;5059383;28;20021;-83
2020/12/10 10:44:31;;;;;;;16.30;7.53;;;4.40;73.60;;;;;;5059784;28;20385;-82
2020/12/10 10:46:56;;;;;;;16.03;7.17;;;4.30;73.40;;;;;;5059310;28;20025;-83
2020/12/10 10:49:22;;;;;;;12.80;7.03;;;4.40;73.30;;;;;;5076958;28;20388;-83
2020/12/10 10:51:48;;;;;;;13.83;7.00;;;4.30;73.10;;;;;;5076902;28;20040;-83
2020/12/10 10:54:14;;;;;;;15.80;7.57;;;4.40;73.70;;;;;;5058880;28;20477;-83
2020/12/10 10:56:40;;;;;;;15.37;8.00;;;4.30;73.10;;;;;;5059415;28;20036;-83
2020/12/10 10:59:06;;;;;;;12.77;6.87;;;4.40;73.60;;;;;;5059118;28;20040;-83
2020/12/10 11:01:32;;;;;;;14.93;6.80;;;4.40;73.70;;;;;;5059253;28;20107;-83
2020/12/10 11:03:58;;;;;;;19.67;8.20;;;4.50;73.70;;;;;;5059356;28;20028;-82
2020/12/10 11:06:23;;;;;;;19.17;8.53;;;4.40;73.80;;;;;;5058713;28;20025;-83
2020/12/10 11:08:49;;;;;;;17.10;7.53;;;4.40;73.40;;;;;;5076835;28;20036;-83
2020/12/10 11:11:21;;;;;;;15.77;7.47;;;4.40;73.20;;;;;;5058578;28;20048;-83
2020/12/10 11:13:48;;;;;;;14.30;7.43;;;4.40;73.20;;;;;;5076957;28;20078;-82
2020/12/10 11:16:14;;;;;;;16.93;7.70;;;4.30;73.20;;;;;;5058651;28;20532;-83
2020/12/10 11:18:44;;;;;;;16.10;7.70;;;4.40;74.00;;;;;;5059023;28;20024;-82
2020/12/10 11:21:14;;;;;;;16.67;7.93;;;4.40;73.30;;;;;;5058516;28;20028;-83
2020/12/10 11:23:42;;;;;;;16.47;7.50;;;4.40;73.30;;;;;;5076798;28;20028;-82
2020/12/10 11:26:08;;;;;;;14.93;7.90;;;4.50;73.30;;;;;;5058653;28;20029;-83
2020/12/10 11:28:34;;;;;;;18.60;7.67;;;4.50;73.50;;;;;;5076353;28;20097;-83
2020/12/10 11:31:00;;;;;;;15.37;8.13;;;4.50;73.70;;;;;;5058667;28;20528;-82
2020/12/10 11:33:26;;;;;;;17.23;7.30;;;4.40;73.70;;;;;;5058176;28;20044;-83
2020/12/10 11:35:52;;;;;;;17.23;8.33;;;4.40;73.80;;;;;;5058799;28;20030;-83
2020/12/10 11:38:19;;;;;;;20.50;8.77;;;4.40;73.90;;;;;;5058287;28;20035;-83
2020/12/10 11:40:44;;;;;;;17.33;7.87;;;4.40;73.90;;;;;;5058568;28;20036;-82
2020/12/10 11:43:10;;;;;;;17.87;8.43;;;4.50;74.20;;;;;;5058222;28;20020;-83
2020/12/10 11:45:37;;;;;;;16.10;8.23;;;4.50;74.40;;;;;;5076517;28;20021;-83
2020/12/10 11:48:04;;;;;;;19.23;7.73;;;4.40;74.50;;;;;;5058755;28;20040;-83
2020/12/10 11:50:32;;;;;;;18.93;8.87;;;4.40;74.60;;;;;;5058623;28;20052;-84
2020/12/10 11:52:57;;;;;;;15.70;7.93;;;4.50;75.00;;;;;;5058560;28;20362;-83
2020/12/10 11:55:23;;;;;;;18.17;8.87;;;4.60;74.80;;;;;;5057810;28;20251;-84
2020/12/10 11:57:49;;;;;;;18.97;8.83;;;4.60;74.80;;;;;;5058189;28;20090;-83
2020/12/10 12:00:16;;;;;;;18.50;8.07;;;4.60;74.30;;;;;;5057863;28;20407;-82
2020/12/10 12:02:42;;;;;;;18.43;8.33;;;4.60;73.90;;;;;;5075741;28;20024;-83
2020/12/10 12:05:08;;;;;;;18.90;8.77;;;4.60;74.00;;;;;;5057991;28;20025;-83
2020/12/10 12:07:36;;;;;;;19.03;8.17;;;4.60;73.60;;;;;;5058265;28;20059;-83
2020/12/10 12:10:02;;;;;;;31.07;10.50;;;4.50;73.50;;;;;;5058032;28;20044;-83
2020/12/10 12:12:28;;;;;;;35.57;15.00;;;4.50;73.70;;;;;;5057583;28;20021;-83
2020/12/10 12:14:55;;;;;;;22.47;9.33;;;4.50;74.00;;;;;;5075665;28;20032;-83
2020/12/10 12:17:20;;;;;;;18.90;8.90;;;4.50;73.40;;;;;;5075205;28;20025;-83
2020/12/10 12:19:46;;;;;;;21.47;8.87;;;4.50;73.60;;;;;;5057908;28;20025;-83
2020/12/10 12:22:12;;;;;;;19.07;9.07;;;4.50;73.20;;;;;;5057205;28;20552;-83
2020/12/10 12:24:38;;;;;;;41.23;15.47;;;4.60;73.80;;;;;;5057791;28;20078;-83
2020/12/10 12:27:04;;;;;;;22.70;10.03;;;4.60;73.80;;;;;;5057246;28;20035;-83
2020/12/10 12:29:31;;;;;;;19.77;9.17;;;4.70;73.90;;;;;;5057217;28;20032;-83
2020/12/10 12:31:56;;;;;;;18.43;8.60;;;4.70;73.60;;;;;;5057353;28;20083;-83
2020/12/10 12:34:22;;;;;;;16.40;8.60;;;4.70;73.80;;;;;;5057265;28;20036;-83
2020/12/10 12:36:48;;;;;;;18.73;8.77;;;4.70;73.10;;;;;;5075356;28;20028;-83
2020/12/10 12:39:14;;;;;;;18.17;8.43;;;4.70;73.10;;;;;;5057079;28;20035;-83
2020/12/10 12:41:40;;;;;;;15.17;7.67;;;4.70;72.90;;;;;;5057472;28;20029;-83
2020/12/10 12:44:06;;;;;;;20.27;8.73;;;4.80;72.90;;;;;;5057397;28;20024;-82
2020/12/10 12:46:32;;;;;;;15.13;7.60;;;4.70;72.80;;;;;;5074922;28;20035;-83
2020/12/10 12:48:58;;;;;;;15.07;7.70;;;4.80;72.60;;;;;;5057118;28;20033;-83
2020/12/10 12:51:24;;;;;;;18.83;8.33;;;4.80;73.10;;;;;;5056856;28;20056;-83
2020/12/10 12:53:52;;;;;;;17.23;7.90;;;4.90;73.10;;;;;;5074721;28;20021;-83